sensor_id;sensor_type;location;lat;lon;timestamp;P1;durP1;ratioP1;P2;durP2;ratioP2
15116;SDS011;7659;51.038;13.786;2022-12-05T00:02:25;18.63;;;14.30;;
15116;SDS011;7659;51.038;13.786;2022-12-05T00:04:50;20.02;;;14.57;;
15116;SDS011;7659;51.038;13.786;2022-12-05T00:07:16;19.30;;;13.68;;
15116;SDS011;7659;51.038;13.786;2022-12-05T00:09:41;19.80;;;14.88;;
15116;SDS011;7659;51.038;13.786;2022-12-05T00:12:07;21.33;;;14.70;;
15116;SDS011;7659;51.038;13.786;2022-12-05T00:14:32;17.98;;;13.70;;
15116;SDS011;7659;51.038;13.786;2022-12-05T00:16:57;21.13;;;15.30;;
15116;SDS011;7659;51.038;13.786;2022-12-05T00:19:23;18.98;;;14.63;;
15116;SDS011;7659;51.038;13.786;2022-12-05T00:21:48;19.02;;;14.18;;
15116;SDS011;7659;51.038;13.786;2022-12-05T00:24:14;20.70;;;15.68;;
15116;SDS011;7659;51.038;13.786;2022-12-05T00:26:40;20.08;;;15.57;;
15116;SDS011;7659;51.038;13.786;2022-12-05T00:29:05;19.55;;;13.70;;
15116;SDS011;7659;51.038;13.786;2022-12-05T00:31:31;23.25;;;15.32;;
15116;SDS011;7659;51.038;13.786;2022-12-05T00:33:58;19.15;;;14.65;;
15116;SDS011;7659;51.038;13.786;2022-12-05T00:36:25;20.95;;;14.02;;
15116;SDS011;7659;51.038;13.786;2022-12-05T00:38:51;21.15;;;15.10;;
15116;SDS011;7659;51.038;13.786;2022-12-05T00:41:17;19.42;;;14.85;;
15116;SDS011;7659;51.038;13.786;2022-12-05T00:43:43;17.98;;;14.23;;
15116;SDS011;7659;51.038;13.786;2022-12-05T00:46:11;19.48;;;14.73;;
15116;SDS011;7659;51.038;13.786;2022-12-05T00:48:36;20.08;;;15.02;;
15116;SDS011;7659;51.038;13.786;2022-12-05T00:51:03;19.77;;;15.07;;
15116;SDS011;7659;51.038;13.786;2022-12-05T00:53:29;19.50;;;14.32;;
15116;SDS011;7659;51.038;13.786;2022-12-05T00:55:54;19.65;;;15.35;;
15116;SDS011;7659;51.038;13.786;2022-12-05T00:58:20;20.25;;;14.70;;
15116;SDS011;7659;51.038;13.786;2022-12-05T01:00:45;20.60;;;15.13;;
15116;SDS011;7659;51.038;13.786;2022-12-05T01:03:10;23.48;;;15.90;;
15116;SDS011;7659;51.038;13.786;2022-12-05T01:05:36;19.50;;;14.70;;
15116;SDS011;7659;51.038;13.786;2022-12-05T01:08:02;20.50;;;15.43;;
15116;SDS011;7659;51.038;13.786;2022-12-05T01:10:27;20.65;;;15.88;;
15116;SDS011;7659;51.038;13.786;2022-12-05T01:12:52;21.80;;;15.75;;
15116;SDS011;7659;51.038;13.786;2022-12-05T01:15:18;24.30;;;15.82;;
15116;SDS011;7659;51.038;13.786;2022-12-05T01:17:43;21.52;;;15.95;;
15116;SDS011;7659;51.038;13.786;2022-12-05T01:20:09;22.63;;;16.63;;
15116;SDS011;7659;51.038;13.786;2022-12-05T01:22:34;22.80;;;17.33;;
15116;SDS011;7659;51.038;13.786;2022-12-05T01:25:01;31.90;;;23.63;;
15116;SDS011;7659;51.038;13.786;2022-12-05T01:27:27;21.13;;;15.30;;
15116;SDS011;7659;51.038;13.786;2022-12-05T01:29:53;23.67;;;16.45;;
15116;SDS011;7659;51.038;13.786;2022-12-05T01:32:18;22.00;;;15.93;;
15116;SDS011;7659;51.038;13.786;2022-12-05T01:34:43;24.25;;;16.42;;
15116;SDS011;7659;51.038;13.786;2022-12-05T01:37:09;25.65;;;16.77;;
15116;SDS011;7659;51.038;13.786;2022-12-05T01:39:34;21.67;;;16.23;;
15116;SDS011;7659;51.038;13.786;2022-12-05T01:42:00;24.02;;;17.20;;
15116;SDS011;7659;51.038;13.786;2022-12-05T01:46:51;22.25;;;16.52;;
15116;SDS011;7659;51.038;13.786;2022-12-05T01:51:46;23.60;;;16.70;;
15116;SDS011;7659;51.038;13.786;2022-12-05T01:54:12;27.60;;;16.75;;
15116;SDS011;7659;51.038;13.786;2022-12-05T01:56:38;24.60;;;17.17;;
15116;SDS011;7659;51.038;13.786;2022-12-05T01:59:04;31.13;;;20.85;;
15116;SDS011;7659;51.038;13.786;2022-12-05T02:01:32;25.10;;;18.85;;
15116;SDS011;7659;51.038;13.786;2022-12-05T02:03:58;24.15;;;16.13;;
15116;SDS011;7659;51.038;13.786;2022-12-05T02:06:24;22.33;;;16.45;;
15116;SDS011;7659;51.038;13.786;2022-12-05T02:08:51;21.48;;;15.93;;
15116;SDS011;7659;51.038;13.786;2022-12-05T02:11:16;24.35;;;15.95;;
15116;SDS011;7659;51.038;13.786;2022-12-05T02:13:47;19.63;;;15.43;;
15116;SDS011;7659;51.038;13.786;2022-12-05T02:18:46;24.30;;;15.23;;
15116;SDS011;7659;51.038;13.786;2022-12-05T02:23:53;23.10;;;15.52;;
15116;SDS011;7659;51.038;13.786;2022-12-05T02:34:34;23.70;;;15.43;;
15116;SDS011;7659;51.038;13.786;2022-12-05T02:37:11;23.23;;;15.10;;
15116;SDS011;7659;51.038;13.786;2022-12-05T02:42:17;21.95;;;15.05;;
15116;SDS011;7659;51.038;13.786;2022-12-05T02:44:54;22.40;;;15.35;;
15116;SDS011;7659;51.038;13.786;2022-12-05T02:47:21;18.92;;;13.98;;
15116;SDS011;7659;51.038;13.786;2022-12-05T02:49:48;19.35;;;14.52;;
15116;SDS011;7659;51.038;13.786;2022-12-05T02:52:15;19.73;;;14.48;;
15116;SDS011;7659;51.038;13.786;2022-12-05T02:54:42;19.35;;;13.43;;
15116;SDS011;7659;51.038;13.786;2022-12-05T02:57:09;21.25;;;14.63;;
15116;SDS011;7659;51.038;13.786;2022-12-05T02:59:35;20.27;;;14.02;;
15116;SDS011;7659;51.038;13.786;2022-12-05T03:02:01;19.10;;;13.63;;
15116;SDS011;7659;51.038;13.786;2022-12-05T03:04:26;19.50;;;13.80;;
15116;SDS011;7659;51.038;13.786;2022-12-05T03:06:54;18.25;;;13.57;;
15116;SDS011;7659;51.038;13.786;2022-12-05T03:09:27;19.10;;;13.88;;
15116;SDS011;7659;51.038;13.786;2022-12-05T03:11:57;19.30;;;14.57;;
15116;SDS011;7659;51.038;13.786;2022-12-05T03:14:26;21.88;;;14.95;;
15116;SDS011;7659;51.038;13.786;2022-12-05T03:16:53;22.25;;;14.90;;
15116;SDS011;7659;51.038;13.786;2022-12-05T03:19:25;21.42;;;13.57;;
15116;SDS011;7659;51.038;13.786;2022-12-05T03:21:56;19.30;;;12.90;;
15116;SDS011;7659;51.038;13.786;2022-12-05T03:24:22;18.48;;;13.50;;
15116;SDS011;7659;51.038;13.786;2022-12-05T03:27:50;20.55;;;13.55;;
15116;SDS011;7659;51.038;13.786;2022-12-05T03:29:57;18.13;;;12.85;;
15116;SDS011;7659;51.038;13.786;2022-12-05T03:32:31;17.25;;;13.02;;
15116;SDS011;7659;51.038;13.786;2022-12-05T03:37:45;20.70;;;13.73;;
15116;SDS011;7659;51.038;13.786;2022-12-05T03:43:07;20.15;;;12.75;;
15116;SDS011;7659;51.038;13.786;2022-12-05T03:45:36;19.40;;;12.75;;
15116;SDS011;7659;51.038;13.786;2022-12-05T03:48:13;16.13;;;11.80;;
15116;SDS011;7659;51.038;13.786;2022-12-05T03:50:40;17.45;;;12.95;;
15116;SDS011;7659;51.038;13.786;2022-12-05T03:53:09;16.45;;;11.45;;
15116;SDS011;7659;51.038;13.786;2022-12-05T03:55:36;18.75;;;12.27;;
15116;SDS011;7659;51.038;13.786;2022-12-05T03:58:05;15.18;;;12.07;;
15116;SDS011;7659;51.038;13.786;2022-12-05T04:00:32;16.40;;;11.52;;
15116;SDS011;7659;51.038;13.786;2022-12-05T04:08:54;15.30;;;11.55;;
15116;SDS011;7659;51.038;13.786;2022-12-05T04:11:02;16.98;;;11.85;;
15116;SDS011;7659;51.038;13.786;2022-12-05T04:15:56;15.00;;;11.20;;
15116;SDS011;7659;51.038;13.786;2022-12-05T04:18:44;15.90;;;11.05;;
15116;SDS011;7659;51.038;13.786;2022-12-05T04:21:10;14.52;;;11.32;;
15116;SDS011;7659;51.038;13.786;2022-12-05T04:23:55;16.65;;;12.02;;
15116;SDS011;7659;51.038;13.786;2022-12-05T04:26:42;17.67;;;11.63;;
15116;SDS011;7659;51.038;13.786;2022-12-05T04:29:15;15.52;;;10.98;;
15116;SDS011;7659;51.038;13.786;2022-12-05T04:31:42;15.07;;;11.25;;
15116;SDS011;7659;51.038;13.786;2022-12-05T04:34:11;17.25;;;11.98;;
15116;SDS011;7659;51.038;13.786;2022-12-05T04:36:41;16.77;;;11.40;;
15116;SDS011;7659;51.038;13.786;2022-12-05T04:41:38;14.48;;;10.70;;
15116;SDS011;7659;51.038;13.786;2022-12-05T04:44:09;13.38;;;10.25;;
15116;SDS011;7659;51.038;13.786;2022-12-05T04:46:36;13.80;;;10.57;;
15116;SDS011;7659;51.038;13.786;2022-12-05T04:49:02;14.20;;;9.90;;
15116;SDS011;7659;51.038;13.786;2022-12-05T04:51:32;13.27;;;10.85;;
15116;SDS011;7659;51.038;13.786;2022-12-05T04:54:10;14.70;;;10.38;;
15116;SDS011;7659;51.038;13.786;2022-12-05T04:56:38;16.48;;;11.95;;
15116;SDS011;7659;51.038;13.786;2022-12-05T04:59:05;14.35;;;11.48;;
15116;SDS011;7659;51.038;13.786;2022-12-05T05:01:33;18.13;;;11.18;;
15116;SDS011;7659;51.038;13.786;2022-12-05T05:04:07;14.88;;;11.00;;
15116;SDS011;7659;51.038;13.786;2022-12-05T05:06:36;16.20;;;11.25;;
15116;SDS011;7659;51.038;13.786;2022-12-05T05:09:01;13.40;;;10.57;;
15116;SDS011;7659;51.038;13.786;2022-12-05T05:11:28;14.35;;;10.88;;
15116;SDS011;7659;51.038;13.786;2022-12-05T05:13:54;14.38;;;11.27;;
15116;SDS011;7659;51.038;13.786;2022-12-05T05:16:23;16.45;;;10.50;;
15116;SDS011;7659;51.038;13.786;2022-12-05T05:18:49;13.85;;;10.75;;
15116;SDS011;7659;51.038;13.786;2022-12-05T05:21:15;12.43;;;10.23;;
15116;SDS011;7659;51.038;13.786;2022-12-05T05:23:42;13.73;;;11.02;;
15116;SDS011;7659;51.038;13.786;2022-12-05T05:26:07;16.88;;;10.40;;
15116;SDS011;7659;51.038;13.786;2022-12-05T05:28:32;16.25;;;11.48;;
15116;SDS011;7659;51.038;13.786;2022-12-05T05:31:01;15.25;;;10.23;;
15116;SDS011;7659;51.038;13.786;2022-12-05T05:33:27;13.45;;;10.23;;
15116;SDS011;7659;51.038;13.786;2022-12-05T05:35:53;12.68;;;10.02;;
15116;SDS011;7659;51.038;13.786;2022-12-05T05:38:18;15.20;;;11.02;;
15116;SDS011;7659;51.038;13.786;2022-12-05T05:40:43;12.30;;;9.77;;
15116;SDS011;7659;51.038;13.786;2022-12-05T05:43:09;12.48;;;9.68;;
15116;SDS011;7659;51.038;13.786;2022-12-05T05:45:35;12.93;;;9.55;;
15116;SDS011;7659;51.038;13.786;2022-12-05T05:48:01;14.23;;;10.80;;
15116;SDS011;7659;51.038;13.786;2022-12-05T05:50:26;13.32;;;9.77;;
15116;SDS011;7659;51.038;13.786;2022-12-05T05:52:52;22.10;;;14.90;;
15116;SDS011;7659;51.038;13.786;2022-12-05T05:55:17;19.20;;;12.80;;
15116;SDS011;7659;51.038;13.786;2022-12-05T05:57:43;18.35;;;12.18;;
15116;SDS011;7659;51.038;13.786;2022-12-05T06:00:09;19.73;;;11.07;;
15116;SDS011;7659;51.038;13.786;2022-12-05T06:02:34;15.25;;;11.18;;
15116;SDS011;7659;51.038;13.786;2022-12-05T06:05:00;14.98;;;10.65;;
15116;SDS011;7659;51.038;13.786;2022-12-05T06:07:26;15.20;;;10.00;;
15116;SDS011;7659;51.038;13.786;2022-12-05T06:09:51;15.10;;;10.55;;
15116;SDS011;7659;51.038;13.786;2022-12-05T06:12:17;16.75;;;11.25;;
15116;SDS011;7659;51.038;13.786;2022-12-05T06:14:42;15.40;;;10.68;;
15116;SDS011;7659;51.038;13.786;2022-12-05T06:17:08;17.48;;;11.75;;
15116;SDS011;7659;51.038;13.786;2022-12-05T06:19:33;20.70;;;10.52;;
15116;SDS011;7659;51.038;13.786;2022-12-05T06:21:59;15.88;;;11.15;;
15116;SDS011;7659;51.038;13.786;2022-12-05T06:24:24;20.08;;;11.27;;
15116;SDS011;7659;51.038;13.786;2022-12-05T06:26:49;15.93;;;11.80;;
15116;SDS011;7659;51.038;13.786;2022-12-05T06:29:15;17.23;;;11.50;;
15116;SDS011;7659;51.038;13.786;2022-12-05T06:31:40;12.85;;;10.25;;
15116;SDS011;7659;51.038;13.786;2022-12-05T06:34:06;16.27;;;10.63;;
15116;SDS011;7659;51.038;13.786;2022-12-05T06:36:31;15.75;;;11.82;;
15116;SDS011;7659;51.038;13.786;2022-12-05T06:38:58;16.15;;;11.45;;
15116;SDS011;7659;51.038;13.786;2022-12-05T06:41:23;16.63;;;11.27;;
15116;SDS011;7659;51.038;13.786;2022-12-05T06:43:52;13.75;;;10.95;;
15116;SDS011;7659;51.038;13.786;2022-12-05T06:46:18;16.38;;;12.07;;
15116;SDS011;7659;51.038;13.786;2022-12-05T06:48:44;20.60;;;13.18;;
15116;SDS011;7659;51.038;13.786;2022-12-05T06:51:10;17.13;;;12.57;;
15116;SDS011;7659;51.038;13.786;2022-12-05T06:53:36;18.00;;;13.00;;
15116;SDS011;7659;51.038;13.786;2022-12-05T06:56:02;18.15;;;11.55;;
15116;SDS011;7659;51.038;13.786;2022-12-05T06:58:28;16.58;;;12.32;;
15116;SDS011;7659;51.038;13.786;2022-12-05T07:00:54;17.85;;;11.55;;
15116;SDS011;7659;51.038;13.786;2022-12-05T07:03:38;15.20;;;11.23;;
15116;SDS011;7659;51.038;13.786;2022-12-05T07:06:04;15.45;;;11.23;;
15116;SDS011;7659;51.038;13.786;2022-12-05T07:08:30;14.88;;;11.55;;
15116;SDS011;7659;51.038;13.786;2022-12-05T07:10:55;15.70;;;11.48;;
15116;SDS011;7659;51.038;13.786;2022-12-05T07:13:21;17.48;;;11.70;;
15116;SDS011;7659;51.038;13.786;2022-12-05T07:15:47;14.27;;;11.65;;
15116;SDS011;7659;51.038;13.786;2022-12-05T07:18:13;18.25;;;11.60;;
15116;SDS011;7659;51.038;13.786;2022-12-05T07:20:39;18.35;;;11.15;;
15116;SDS011;7659;51.038;13.786;2022-12-05T07:23:04;14.93;;;11.45;;
15116;SDS011;7659;51.038;13.786;2022-12-05T07:25:30;17.52;;;12.18;;
15116;SDS011;7659;51.038;13.786;2022-12-05T07:27:55;18.70;;;11.15;;
15116;SDS011;7659;51.038;13.786;2022-12-05T07:30:21;16.00;;;10.45;;
15116;SDS011;7659;51.038;13.786;2022-12-05T07:32:46;16.17;;;10.90;;
15116;SDS011;7659;51.038;13.786;2022-12-05T07:35:12;16.55;;;11.52;;
15116;SDS011;7659;51.038;13.786;2022-12-05T07:37:37;17.40;;;11.18;;
15116;SDS011;7659;51.038;13.786;2022-12-05T07:40:03;16.38;;;10.65;;
15116;SDS011;7659;51.038;13.786;2022-12-05T07:42:29;17.27;;;10.73;;
15116;SDS011;7659;51.038;13.786;2022-12-05T07:44:54;20.05;;;11.55;;
15116;SDS011;7659;51.038;13.786;2022-12-05T07:47:19;17.40;;;10.68;;
15116;SDS011;7659;51.038;13.786;2022-12-05T07:49:45;17.00;;;10.82;;
15116;SDS011;7659;51.038;13.786;2022-12-05T07:52:10;16.67;;;12.15;;
15116;SDS011;7659;51.038;13.786;2022-12-05T07:54:36;15.85;;;10.52;;
15116;SDS011;7659;51.038;13.786;2022-12-05T07:57:01;15.93;;;11.52;;
15116;SDS011;7659;51.038;13.786;2022-12-05T07:59:27;16.05;;;11.25;;
15116;SDS011;7659;51.038;13.786;2022-12-05T08:01:52;15.73;;;11.80;;
15116;SDS011;7659;51.038;13.786;2022-12-05T08:04:18;14.65;;;11.10;;
15116;SDS011;7659;51.038;13.786;2022-12-05T08:06:43;16.45;;;11.27;;
15116;SDS011;7659;51.038;13.786;2022-12-05T08:09:09;16.83;;;11.50;;
15116;SDS011;7659;51.038;13.786;2022-12-05T08:11:34;17.48;;;11.73;;
15116;SDS011;7659;51.038;13.786;2022-12-05T08:14:00;17.55;;;12.20;;
15116;SDS011;7659;51.038;13.786;2022-12-05T08:16:27;15.75;;;11.48;;
15116;SDS011;7659;51.038;13.786;2022-12-05T08:18:59;16.13;;;11.82;;
15116;SDS011;7659;51.038;13.786;2022-12-05T08:21:25;16.35;;;11.77;;
15116;SDS011;7659;51.038;13.786;2022-12-05T08:23:51;15.52;;;11.88;;
15116;SDS011;7659;51.038;13.786;2022-12-05T08:26:24;17.90;;;11.18;;
15116;SDS011;7659;51.038;13.786;2022-12-05T08:28:54;16.42;;;11.85;;
15116;SDS011;7659;51.038;13.786;2022-12-05T08:31:20;15.45;;;11.02;;
15116;SDS011;7659;51.038;13.786;2022-12-05T08:33:48;18.63;;;11.75;;
15116;SDS011;7659;51.038;13.786;2022-12-05T08:36:13;16.42;;;11.55;;
15116;SDS011;7659;51.038;13.786;2022-12-05T08:38:39;17.63;;;12.75;;
15116;SDS011;7659;51.038;13.786;2022-12-05T08:41:09;15.82;;;11.52;;
15116;SDS011;7659;51.038;13.786;2022-12-05T08:43:35;17.05;;;11.63;;
15116;SDS011;7659;51.038;13.786;2022-12-05T08:46:01;19.42;;;12.02;;
15116;SDS011;7659;51.038;13.786;2022-12-05T08:48:27;16.70;;;11.40;;
15116;SDS011;7659;51.038;13.786;2022-12-05T08:50:53;16.05;;;10.95;;
15116;SDS011;7659;51.038;13.786;2022-12-05T08:53:18;16.38;;;11.00;;
15116;SDS011;7659;51.038;13.786;2022-12-05T08:55:43;16.67;;;11.85;;
15116;SDS011;7659;51.038;13.786;2022-12-05T08:58:12;14.55;;;11.52;;
15116;SDS011;7659;51.038;13.786;2022-12-05T09:00:38;14.75;;;11.00;;
15116;SDS011;7659;51.038;13.786;2022-12-05T09:03:03;16.02;;;11.25;;
15116;SDS011;7659;51.038;13.786;2022-12-05T09:05:29;13.73;;;10.77;;
15116;SDS011;7659;51.038;13.786;2022-12-05T09:07:55;15.57;;;10.93;;
15116;SDS011;7659;51.038;13.786;2022-12-05T09:10:20;14.07;;;10.50;;
15116;SDS011;7659;51.038;13.786;2022-12-05T09:12:46;15.40;;;11.40;;
15116;SDS011;7659;51.038;13.786;2022-12-05T09:15:11;16.30;;;11.02;;
15116;SDS011;7659;51.038;13.786;2022-12-05T09:17:37;15.93;;;11.10;;
15116;SDS011;7659;51.038;13.786;2022-12-05T09:20:04;14.25;;;10.70;;
15116;SDS011;7659;51.038;13.786;2022-12-05T09:22:29;17.00;;;10.95;;
15116;SDS011;7659;51.038;13.786;2022-12-05T09:24:55;15.40;;;10.23;;
15116;SDS011;7659;51.038;13.786;2022-12-05T09:27:20;13.85;;;10.20;;
15116;SDS011;7659;51.038;13.786;2022-12-05T09:29:46;15.25;;;10.90;;
15116;SDS011;7659;51.038;13.786;2022-12-05T09:32:11;15.45;;;10.90;;
15116;SDS011;7659;51.038;13.786;2022-12-05T09:34:37;14.70;;;11.07;;
15116;SDS011;7659;51.038;13.786;2022-12-05T09:37:03;19.55;;;11.27;;
15116;SDS011;7659;51.038;13.786;2022-12-05T09:39:28;17.40;;;11.25;;
15116;SDS011;7659;51.038;13.786;2022-12-05T09:45:10;16.85;;;11.02;;
15116;SDS011;7659;51.038;13.786;2022-12-05T09:47:55;16.23;;;11.43;;
15116;SDS011;7659;51.038;13.786;2022-12-05T09:56:33;15.90;;;11.13;;
15116;SDS011;7659;51.038;13.786;2022-12-05T09:58:46;19.67;;;11.43;;
15116;SDS011;7659;51.038;13.786;2022-12-05T10:06:47;18.75;;;11.02;;
15116;SDS011;7659;51.038;13.786;2022-12-05T10:11:48;18.73;;;11.88;;
15116;SDS011;7659;51.038;13.786;2022-12-05T10:14:27;19.50;;;11.43;;
15116;SDS011;7659;51.038;13.786;2022-12-05T10:16:57;17.52;;;11.13;;
15116;SDS011;7659;51.038;13.786;2022-12-05T10:19:31;22.85;;;11.95;;
15116;SDS011;7659;51.038;13.786;2022-12-05T10:22:01;21.33;;;11.85;;
15116;SDS011;7659;51.038;13.786;2022-12-05T10:24:30;17.73;;;11.85;;
15116;SDS011;7659;51.038;13.786;2022-12-05T10:26:58;16.58;;;12.30;;
15116;SDS011;7659;51.038;13.786;2022-12-05T10:29:34;19.05;;;13.00;;
15116;SDS011;7659;51.038;13.786;2022-12-05T10:32:04;17.23;;;12.70;;
15116;SDS011;7659;51.038;13.786;2022-12-05T10:34:38;16.98;;;11.52;;
15116;SDS011;7659;51.038;13.786;2022-12-05T10:39:42;16.20;;;12.07;;
15116;SDS011;7659;51.038;13.786;2022-12-05T10:42:11;18.10;;;12.32;;
15116;SDS011;7659;51.038;13.786;2022-12-05T10:44:37;18.08;;;11.32;;
15116;SDS011;7659;51.038;13.786;2022-12-05T10:47:03;20.90;;;11.68;;
15116;SDS011;7659;51.038;13.786;2022-12-05T10:49:29;17.15;;;11.85;;
15116;SDS011;7659;51.038;13.786;2022-12-05T10:51:55;19.05;;;11.48;;
15116;SDS011;7659;51.038;13.786;2022-12-05T10:54:25;14.40;;;10.00;;
15116;SDS011;7659;51.038;13.786;2022-12-05T10:56:53;15.18;;;9.93;;
15116;SDS011;7659;51.038;13.786;2022-12-05T10:59:22;14.63;;;10.23;;
15116;SDS011;7659;51.038;13.786;2022-12-05T11:01:52;17.00;;;10.75;;
15116;SDS011;7659;51.038;13.786;2022-12-05T11:06:54;15.90;;;10.60;;
15116;SDS011;7659;51.038;13.786;2022-12-05T11:09:25;15.27;;;10.70;;
15116;SDS011;7659;51.038;13.786;2022-12-05T11:14:35;21.87;;;12.73;;
15116;SDS011;7659;51.038;13.786;2022-12-05T11:17:01;16.60;;;11.95;;
15116;SDS011;7659;51.038;13.786;2022-12-05T11:19:28;16.65;;;12.60;;
15116;SDS011;7659;51.038;13.786;2022-12-05T11:21:55;16.63;;;11.20;;
15116;SDS011;7659;51.038;13.786;2022-12-05T11:24:31;15.55;;;11.10;;
15116;SDS011;7659;51.038;13.786;2022-12-05T11:26:57;18.08;;;12.80;;
15116;SDS011;7659;51.038;13.786;2022-12-05T11:29:30;15.90;;;11.02;;
15116;SDS011;7659;51.038;13.786;2022-12-05T11:31:56;13.80;;;10.07;;
15116;SDS011;7659;51.038;13.786;2022-12-05T11:34:22;13.32;;;10.43;;
15116;SDS011;7659;51.038;13.786;2022-12-05T11:37:02;15.85;;;11.02;;
15116;SDS011;7659;51.038;13.786;2022-12-05T11:39:29;16.10;;;10.75;;
15116;SDS011;7659;51.038;13.786;2022-12-05T11:49:40;13.48;;;9.45;;
15116;SDS011;7659;51.038;13.786;2022-12-05T11:57:14;12.70;;;9.55;;
15116;SDS011;7659;51.038;13.786;2022-12-05T12:04:49;17.60;;;11.65;;
15116;SDS011;7659;51.038;13.786;2022-12-05T12:10:00;16.55;;;12.07;;
15116;SDS011;7659;51.038;13.786;2022-12-05T12:12:33;17.80;;;12.85;;
15116;SDS011;7659;51.038;13.786;2022-12-05T12:20:13;16.48;;;11.70;;
15116;SDS011;7659;51.038;13.786;2022-12-05T12:25:17;18.65;;;12.90;;
15116;SDS011;7659;51.038;13.786;2022-12-05T12:37:51;17.60;;;12.40;;
15116;SDS011;7659;51.038;13.786;2022-12-05T12:40:29;19.38;;;13.38;;
15116;SDS011;7659;51.038;13.786;2022-12-05T12:43:19;17.08;;;11.98;;
15116;SDS011;7659;51.038;13.786;2022-12-05T12:48:29;14.30;;;10.60;;
15116;SDS011;7659;51.038;13.786;2022-12-05T12:50:56;16.73;;;11.43;;
15116;SDS011;7659;51.038;13.786;2022-12-05T13:03:50;16.80;;;10.70;;
15116;SDS011;7659;51.038;13.786;2022-12-05T13:06:40;16.75;;;11.05;;
15116;SDS011;7659;51.038;13.786;2022-12-05T13:09:05;16.90;;;10.75;;
15116;SDS011;7659;51.038;13.786;2022-12-05T13:11:34;19.80;;;10.88;;
15116;SDS011;7659;51.038;13.786;2022-12-05T13:14:00;16.75;;;10.80;;
15116;SDS011;7659;51.038;13.786;2022-12-05T13:16:27;16.23;;;11.68;;
15116;SDS011;7659;51.038;13.786;2022-12-05T13:18:57;15.10;;;10.20;;
15116;SDS011;7659;51.038;13.786;2022-12-05T13:21:23;16.95;;;11.60;;
15116;SDS011;7659;51.038;13.786;2022-12-05T13:23:51;15.75;;;10.85;;
15116;SDS011;7659;51.038;13.786;2022-12-05T13:26:18;17.20;;;10.27;;
15116;SDS011;7659;51.038;13.786;2022-12-05T13:28:52;15.23;;;11.02;;
15116;SDS011;7659;51.038;13.786;2022-12-05T13:31:37;14.63;;;10.32;;
15116;SDS011;7659;51.038;13.786;2022-12-05T13:34:03;18.95;;;10.35;;
15116;SDS011;7659;51.038;13.786;2022-12-05T13:36:38;13.98;;;9.85;;
15116;SDS011;7659;51.038;13.786;2022-12-05T13:39:23;15.13;;;10.00;;
15116;SDS011;7659;51.038;13.786;2022-12-05T13:42:18;15.07;;;9.60;;
15116;SDS011;7659;51.038;13.786;2022-12-05T13:44:52;15.55;;;9.65;;
15116;SDS011;7659;51.038;13.786;2022-12-05T13:49:47;17.90;;;10.02;;
15116;SDS011;7659;51.038;13.786;2022-12-05T13:52:19;15.13;;;10.38;;
15116;SDS011;7659;51.038;13.786;2022-12-05T13:54:48;14.13;;;9.55;;
15116;SDS011;7659;51.038;13.786;2022-12-05T14:02:50;14.95;;;9.65;;
15116;SDS011;7659;51.038;13.786;2022-12-05T14:05:34;13.98;;;10.23;;
15116;SDS011;7659;51.038;13.786;2022-12-05T14:08:01;16.37;;;10.57;;
15116;SDS011;7659;51.038;13.786;2022-12-05T14:15:45;15.43;;;9.48;;
15116;SDS011;7659;51.038;13.786;2022-12-05T14:18:15;14.70;;;9.85;;
15116;SDS011;7659;51.038;13.786;2022-12-05T14:23:41;13.98;;;8.10;;
15116;SDS011;7659;51.038;13.786;2022-12-05T14:36:55;15.70;;;7.13;;
15116;SDS011;7659;51.038;13.786;2022-12-05T14:39:21;8.43;;;6.13;;
15116;SDS011;7659;51.038;13.786;2022-12-05T14:41:58;10.80;;;5.85;;
15116;SDS011;7659;51.038;13.786;2022-12-05T14:44:27;10.82;;;6.90;;
15116;SDS011;7659;51.038;13.786;2022-12-05T14:46:59;11.13;;;6.00;;
15116;SDS011;7659;51.038;13.786;2022-12-05T14:52:17;9.32;;;6.18;;
15116;SDS011;7659;51.038;13.786;2022-12-05T14:54:46;8.30;;;6.32;;
15116;SDS011;7659;51.038;13.786;2022-12-05T14:57:12;8.35;;;5.75;;
15116;SDS011;7659;51.038;13.786;2022-12-05T15:02:13;9.05;;;6.22;;
15116;SDS011;7659;51.038;13.786;2022-12-05T15:07:15;12.43;;;7.30;;
15116;SDS011;7659;51.038;13.786;2022-12-05T15:12:21;10.57;;;7.35;;
15116;SDS011;7659;51.038;13.786;2022-12-05T15:17:20;10.07;;;7.55;;
15116;SDS011;7659;51.038;13.786;2022-12-05T15:19:51;10.02;;;7.18;;
15116;SDS011;7659;51.038;13.786;2022-12-05T15:22:18;10.38;;;7.45;;
15116;SDS011;7659;51.038;13.786;2022-12-05T15:24:45;9.85;;;7.65;;
15116;SDS011;7659;51.038;13.786;2022-12-05T15:27:11;10.65;;;8.00;;
15116;SDS011;7659;51.038;13.786;2022-12-05T15:29:37;13.10;;;9.05;;
15116;SDS011;7659;51.038;13.786;2022-12-05T15:34:46;11.80;;;7.60;;
15116;SDS011;7659;51.038;13.786;2022-12-05T15:37:25;15.68;;;10.82;;
15116;SDS011;7659;51.038;13.786;2022-12-05T15:39:57;15.95;;;10.13;;
15116;SDS011;7659;51.038;13.786;2022-12-05T15:42:24;18.23;;;12.65;;
15116;SDS011;7659;51.038;13.786;2022-12-05T15:44:50;19.05;;;13.38;;
15116;SDS011;7659;51.038;13.786;2022-12-05T15:47:23;26.75;;;13.70;;
15116;SDS011;7659;51.038;13.786;2022-12-05T15:49:49;19.83;;;12.02;;
15116;SDS011;7659;51.038;13.786;2022-12-05T15:54:40;17.05;;;11.00;;
15116;SDS011;7659;51.038;13.786;2022-12-05T15:57:08;18.45;;;11.07;;
15116;SDS011;7659;51.038;13.786;2022-12-05T15:59:41;16.42;;;10.50;;
15116;SDS011;7659;51.038;13.786;2022-12-05T16:02:14;15.48;;;10.20;;
15116;SDS011;7659;51.038;13.786;2022-12-05T16:04:51;18.15;;;11.30;;
15116;SDS011;7659;51.038;13.786;2022-12-05T16:07:18;13.50;;;10.25;;
15116;SDS011;7659;51.038;13.786;2022-12-05T16:09:45;16.00;;;10.20;;
15116;SDS011;7659;51.038;13.786;2022-12-05T16:14:43;14.10;;;10.82;;
15116;SDS011;7659;51.038;13.786;2022-12-05T16:17:13;16.10;;;10.65;;
15116;SDS011;7659;51.038;13.786;2022-12-05T16:19:39;29.88;;;19.05;;
15116;SDS011;7659;51.038;13.786;2022-12-05T16:22:13;17.35;;;11.35;;
15116;SDS011;7659;51.038;13.786;2022-12-05T16:24:45;17.98;;;10.77;;
15116;SDS011;7659;51.038;13.786;2022-12-05T16:27:16;14.77;;;10.63;;
15116;SDS011;7659;51.038;13.786;2022-12-05T16:29:42;16.73;;;9.65;;
15116;SDS011;7659;51.038;13.786;2022-12-05T16:32:27;16.20;;;11.30;;
15116;SDS011;7659;51.038;13.786;2022-12-05T16:34:52;16.48;;;11.23;;
15116;SDS011;7659;51.038;13.786;2022-12-05T16:37:28;17.55;;;11.80;;
15116;SDS011;7659;51.038;13.786;2022-12-05T16:39:54;14.15;;;10.40;;
15116;SDS011;7659;51.038;13.786;2022-12-05T16:47:24;18.80;;;10.95;;
15116;SDS011;7659;51.038;13.786;2022-12-05T16:49:50;15.43;;;10.70;;
15116;SDS011;7659;51.038;13.786;2022-12-05T16:52:15;16.10;;;10.00;;
15116;SDS011;7659;51.038;13.786;2022-12-05T16:54:42;14.32;;;10.48;;
15116;SDS011;7659;51.038;13.786;2022-12-05T16:57:11;16.50;;;10.48;;
15116;SDS011;7659;51.038;13.786;2022-12-05T16:59:37;15.40;;;10.27;;
15116;SDS011;7659;51.038;13.786;2022-12-05T17:02:09;15.32;;;11.05;;
15116;SDS011;7659;51.038;13.786;2022-12-05T17:04:35;15.20;;;10.07;;
15116;SDS011;7659;51.038;13.786;2022-12-05T17:07:01;13.95;;;9.52;;
15116;SDS011;7659;51.038;13.786;2022-12-05T17:09:27;17.30;;;10.50;;
15116;SDS011;7659;51.038;13.786;2022-12-05T17:11:54;13.73;;;9.80;;
15116;SDS011;7659;51.038;13.786;2022-12-05T17:14:21;15.77;;;10.77;;
15116;SDS011;7659;51.038;13.786;2022-12-05T17:16:46;13.48;;;10.00;;